createdAt,value
2022-10-19T00:24:10.240Z,99.4
2022-10-19T00:54:10.313Z,99.5
2022-10-19T01:04:10.308Z,99.5
2022-10-19T01:24:10.405Z,99.4
2022-10-19T01:34:10.367Z,99.4
2022-10-19T01:44:10.453Z,99.4
2022-10-19T02:04:10.493Z,99.4
2022-10-19T02:14:10.464Z,99.5
2022-10-19T02:24:10.523Z,99.5
2022-10-19T02:34:10.521Z,99.5
2022-10-19T02:44:10.558Z,99.5
2022-10-19T02:54:10.580Z,99.6
2022-10-19T03:04:10.608Z,99.5
2022-10-19T03:34:10.686Z,99.6
2022-10-19T03:44:10.683Z,99.6
2022-10-19T03:54:10.702Z,99.7
2022-10-19T04:04:10.711Z,99.7
2022-10-19T04:14:10.782Z,99.7
2022-10-19T04:24:10.766Z,99.7
2022-10-19T04:34:10.813Z,99.7
2022-10-19T04:44:10.894Z,99.7
2022-10-19T05:04:10.905Z,99.7
2022-10-19T05:14:10.882Z,99.7
2022-10-19T05:24:10.937Z,99.8
2022-10-19T05:44:10.980Z,99.9
2022-10-19T05:54:10.985Z,100
2022-10-19T06:04:11.074Z,100
2022-10-19T06:24:11.094Z,100
2022-10-19T06:34:11.114Z,100
2022-10-19T06:44:11.136Z,100
2022-10-19T06:54:11.123Z,100
2022-10-19T07:04:11.178Z,100
2022-10-19T07:14:11.162Z,99.7
2022-10-19T07:24:11.248Z,99
2022-10-19T07:34:11.216Z,97.4
2022-10-19T07:44:14.842Z,96.2
2022-10-19T07:54:11.253Z,95.4
2022-10-19T08:24:11.341Z,92.7
2022-10-19T08:34:11.304Z,90.7
2022-10-19T09:34:11.446Z,85.1
2022-10-19T09:44:11.434Z,86.3
2022-10-19T10:24:11.575Z,87.2
2022-10-19T10:34:23.013Z,86
2022-10-19T10:44:11.590Z,85.6
2022-10-19T10:54:11.593Z,85.8
2022-10-19T11:14:11.628Z,80.8
2022-10-19T11:24:11.617Z,79.7
2022-10-19T11:34:11.697Z,77.4
2022-10-19T11:44:11.652Z,76.8
2022-10-19T11:54:14.754Z,76
2022-10-19T12:04:11.715Z,74.6
2022-10-19T12:14:11.749Z,74.3
2022-10-19T12:24:11.739Z,74.5
2022-10-19T12:34:11.756Z,73.6
2022-10-19T12:44:11.799Z,73.7
2022-10-19T12:54:11.802Z,74.5
2022-10-19T13:04:11.773Z,75.9
2022-10-19T13:24:11.851Z,77.3
2022-10-19T13:44:11.895Z,77.7
2022-10-19T14:04:11.942Z,78.5
2022-10-19T14:14:11.962Z,78.4
2022-10-19T14:24:11.969Z,78.3
2022-10-19T14:44:12.000Z,79.5
2022-10-19T14:54:11.976Z,79.6
2022-10-19T15:04:12.030Z,80.3
2022-10-19T15:14:12.004Z,80.9
2022-10-19T15:24:12.111Z,81.3
2022-10-19T15:34:12.050Z,80.8
2022-10-19T16:14:12.154Z,81.8
2022-10-19T16:24:12.133Z,82.9
2022-10-19T16:34:12.207Z,84.1
2022-10-19T17:04:12.242Z,86.3
2022-10-19T17:14:12.234Z,86.7
2022-10-19T17:34:12.291Z,86.9
2022-10-19T17:44:12.300Z,86.9
2022-10-19T17:54:12.326Z,87.1
2022-10-19T18:54:12.467Z,89
2022-10-19T19:34:12.523Z,91.2
2022-10-19T19:44:12.517Z,91.1
2022-10-19T19:54:12.562Z,91.3
2022-10-19T20:04:12.557Z,91.5
2022-10-19T20:24:12.621Z,91.9
2022-10-19T20:34:12.649Z,92
2022-10-19T20:44:12.662Z,92.3
2022-10-19T21:04:12.705Z,92.9
2022-10-19T21:14:12.739Z,93.1
2022-10-19T21:44:12.791Z,93.8
2022-10-19T21:54:12.802Z,93.7
2022-10-19T22:04:12.836Z,93.5
2022-10-19T22:24:12.878Z,93.5
2022-10-19T22:34:12.865Z,93.6
2022-10-19T22:54:12.949Z,93.8
2022-10-19T23:04:12.940Z,93.9
2022-10-19T23:14:12.977Z,93.8
2022-10-19T23:34:13.035Z,93.3
2022-10-19T23:44:13.019Z,93.3
2022-10-19T23:54:13.073Z,93.4
